Time;durP1;ratioP1;P1;durP2;ratioP2;P2;SDS_P1;SDS_P2;PMS_P1;PMS_P2;Temp;Humidity;BMP_temperature;BMP_pressure;BME280_temperature;BME280_humidity;BME280_pressure;Samples;Min_cycle;Max_cycle;Signal;HPM_P1;HPM_P2
2023/12/16 00:04:09;;;;;;;;;;;;;;;3.91;100.00;97799.84;10496927;28;2837;-68
2023/12/16 00:09:17;;;;;;;;;;;;;;;3.78;100.00;97817.28;10505847;28;2894;-67
2023/12/16 00:14:31;;;;;;;;;;;;;;;3.85;100.00;97824.53;10516206;28;2800;-68
2023/12/16 00:19:36;;;;;;;;;;;;;;;3.91;100.00;97831.78;10541852;28;2299;-69
2023/12/16 00:24:41;;;;;;;;;;;;;;;3.90;100.00;97830.13;10523625;28;2722;-72
2023/12/16 00:30:01;;;;;;;;;;;;;;;3.87;100.00;97825.16;10512109;28;2780;-69
2023/12/16 00:35:04;;;;;;;;;;;;;;;3.96;100.00;97842.72;10519588;28;1889;-69
2023/12/16 00:40:16;;;;;;;;;;;;;;;4.00;100.00;97814.72;10524866;28;1980;-69
2023/12/16 00:45:19;;;;;;;;;;;;;;;4.02;100.00;97826.03;10515558;28;5007;-70
2023/12/16 00:50:24;;;;;;;;;;;;;;;4.12;100.00;97825.75;10515230;28;1432;-70
2023/12/16 00:55:28;;;;;;;;;;;;;;;4.18;100.00;97849.81;10515242;28;1864;-71
2023/12/16 01:00:32;;;;;;;;;;;;;;;4.24;100.00;97849.06;10521158;28;1910;-68
2023/12/16 01:05:38;;;;;;;;;;;;;;;4.19;100.00;97840.81;10517466;28;2543;-69
2023/12/16 01:10:42;;;;;;;;;;;;;;;4.20;100.00;97847.81;10509163;28;1599;-69
2023/12/16 01:15:48;;;;;;;;;;;;;;;4.22;100.00;97853.75;10516285;28;1936;-69
2023/12/16 01:21:04;;;;;;;;;;;;;;;4.20;100.00;97844.28;10524110;28;2024;-67
2023/12/16 01:26:07;;;;;;;;;;;;;;;4.25;100.00;97845.41;10517424;28;1853;-68
2023/12/16 01:31:14;;;;;;;;;;;;;;;4.27;100.00;97843.41;10496620;28;2031;-73
2023/12/16 01:36:19;;;;;;;;;;;;;;;4.27;100.00;97832.75;10488704;28;1999;-69
2023/12/16 01:41:30;;;;;;;;;;;;;;;4.16;100.00;97838.53;10493658;28;4943;-69
2023/12/16 01:46:35;;;;;;;;;;;;;;;4.31;100.00;97855.31;10495779;28;2133;-73
2023/12/16 01:51:39;;;;;;;;;;;;;;;4.32;100.00;97856.97;10494787;28;2143;-78
2023/12/16 01:56:42;;;;;;;;;;;;;;;4.41;100.00;97848.91;10487722;28;2138;-77
2023/12/16 02:01:52;;;;;;;;;;;;;;;4.42;100.00;97855.88;10512937;28;2154;-74
2023/12/16 02:06:55;;;;;;;;;;;;;;;4.39;100.00;97861.56;10508781;28;2004;-67
2023/12/16 02:12:03;;;;;;;;;;;;;;;4.29;100.00;97867.16;10492387;28;1976;-67
2023/12/16 02:17:16;;;;;;;;;;;;;;;4.33;100.00;97868.47;10500769;28;2007;-69
2023/12/16 02:22:29;;;;;;;;;;;;;;;4.22;100.00;97872.41;10501343;28;2062;-69
2023/12/16 02:27:41;;;;;;;;;;;;;;;4.27;100.00;97870.03;10513611;28;2054;-69
2023/12/16 02:32:45;;;;;;;;;;;;;;;4.31;100.00;97870.47;10500366;28;2171;-71
2023/12/16 02:37:48;;;;;;;;;;;;;;;4.36;100.00;97875.25;10499638;28;2256;-69
2023/12/16 02:42:59;;;;;;;;;;;;;;;4.25;100.00;97881.84;10499157;28;5027;-67
2023/12/16 02:48:07;;;;;;;;;;;;;;;4.26;100.00;97879.03;10504156;28;2022;-69
2023/12/16 02:53:10;;;;;;;;;;;;;;;4.23;100.00;97866.06;10499094;28;2791;-68
2023/12/16 02:58:15;;;;;;;;;;;;;;;4.12;100.00;97866.50;10517062;27;2381;-70
2023/12/16 03:03:20;;;;;;;;;;;;;;;4.15;100.00;97870.66;10481254;28;2103;-68
2023/12/16 03:08:25;;;;;;;;;;;;;;;4.14;100.00;97879.66;10509254;28;2070;-69
2023/12/16 03:13:31;;;;;;;;;;;;;;;4.12;100.00;97879.81;10497921;28;2142;-69
2023/12/16 03:18:37;;;;;;;;;;;;;;;4.06;100.00;97891.19;10497855;28;2236;-70
2023/12/16 03:23:41;;;;;;;;;;;;;;;4.00;100.00;97889.22;10500162;28;2157;-71
2023/12/16 03:28:55;;;;;;;;;;;;;;;3.89;100.00;97892.34;10500071;28;1989;-69
2023/12/16 03:34:06;;;;;;;;;;;;;;;3.96;100.00;97907.41;10495110;28;2090;-69
2023/12/16 03:39:13;;;;;;;;;;;;;;;3.99;100.00;97914.19;10496787;28;2044;-69
2023/12/16 03:44:32;;;;;;;;;;;;;;;3.95;100.00;97913.75;10497330;28;4956;-68
2023/12/16 03:49:52;;;;;;;;;;;;;;;4.10;100.00;97905.78;10503708;28;2396;-69
2023/12/16 03:54:56;;;;;;;;;;;;;;;4.02;100.00;97900.53;10508631;28;2069;-69
2023/12/16 04:00:06;;;;;;;;;;;;;;;4.08;100.00;97902.50;10500145;28;2061;-69
2023/12/16 04:05:12;;;;;;;;;;;;;;;4.03;100.00;97900.34;10494433;28;2098;-69
2023/12/16 04:10:15;;;;;;;;;;;;;;;4.17;100.00;97909.38;10493133;28;2448;-69
2023/12/16 04:15:19;;;;;;;;;;;;;;;4.15;100.00;97906.06;10507200;27;2089;-69
2023/12/16 04:20:23;;;;;;;;;;;;;;;4.13;100.00;97910.72;10509680;27;2116;-68
2023/12/16 04:25:29;;;;;;;;;;;;;;;4.17;100.00;97912.03;10508283;27;2162;-68
2023/12/16 04:30:36;;;;;;;;;;;;;;;4.20;100.00;97914.34;10492516;28;2106;-68
2023/12/16 04:35:40;;;;;;;;;;;;;;;4.21;100.00;97909.84;10491577;28;2222;-68
2023/12/16 04:40:45;;;;;;;;;;;;;;;4.12;100.00;97903.75;10491522;28;2047;-68
2023/12/16 04:45:54;;;;;;;;;;;;;;;4.01;100.00;97889.06;10505094;28;4957;-68
2023/12/16 04:50:59;;;;;;;;;;;;;;;3.92;100.00;97902.63;10474852;28;2008;-68
2023/12/16 04:56:05;;;;;;;;;;;;;;;3.93;100.00;97906.94;10500128;28;2462;-67
2023/12/16 05:01:10;;;;;;;;;;;;;;;3.85;100.00;97921.13;10490415;28;2134;-68
2023/12/16 05:06:15;;;;;;;;;;;;;;;3.91;100.00;97938.22;10506301;28;2069;-68
2023/12/16 05:11:27;;;;;;;;;;;;;;;3.92;100.00;97946.00;10493349;28;2269;-68
2023/12/16 05:16:37;;;;;;;;;;;;;;;4.00;100.00;97927.31;10508170;28;2070;-68
2023/12/16 05:21:43;;;;;;;;;;;;;;;3.93;100.00;97942.34;10508945;28;2051;-67
2023/12/16 05:27:00;;;;;;;;;;;;;;;3.96;100.00;97938.53;10506937;28;2231;-68
2023/12/16 05:32:09;;;;;;;;;;;;;;;4.01;100.00;97958.28;10492911;28;2062;-72
2023/12/16 05:37:14;;;;;;;;;;;;;;;4.04;100.00;97943.75;10490996;28;2075;-69
2023/12/16 05:42:25;;;;;;;;;;;;;;;4.06;100.00;97941.75;10490444;28;4841;-67
2023/12/16 05:47:28;;;;;;;;;;;;;;;4.10;100.00;97934.25;10510394;28;1926;-69
2023/12/16 05:52:33;;;;;;;;;;;;;;;4.03;100.00;97911.00;10515043;28;2344;-71
2023/12/16 05:57:41;;;;;;;;;;;;;;;4.10;100.00;97919.09;10503161;28;2270;-69
2023/12/16 06:02:45;;;;;;;;;;;;;;;4.03;100.00;97931.47;10501894;28;2030;-68
2023/12/16 06:07:50;;;;;;;;;;;;;;;4.07;100.00;97924.75;10512597;28;2080;-68
2023/12/16 06:12:57;;;;;;;;;;;;;;;4.02;100.00;97927.97;10481638;28;2088;-68
2023/12/16 06:18:03;;;;;;;;;;;;;;;4.10;100.00;97932.41;10498525;28;2130;-73
2023/12/16 06:23:07;;;;;;;;;;;;;;;4.01;100.00;97930.84;10500086;28;2281;-70
2023/12/16 06:28:12;;;;;;;;;;;;;;;4.02;100.00;97935.13;10498975;28;1964;-68
2023/12/16 06:33:19;;;;;;;;;;;;;;;3.91;100.00;97951.53;10502878;28;2783;-68
2023/12/16 06:38:26;;;;;;;;;;;;;;;3.86;100.00;97935.25;10510579;28;2058;-70
2023/12/16 06:43:43;;;;;;;;;;;;;;;3.82;100.00;97940.13;10499606;28;5067;-69
2023/12/16 06:48:48;;;;;;;;;;;;;;;3.76;100.00;97957.63;10502774;28;2264;-69
2023/12/16 06:53:53;;;;;;;;;;;;;;;3.70;100.00;97953.00;10499102;28;2043;-68
2023/12/16 06:59:11;;;;;;;;;;;;;;;3.61;100.00;97956.72;10499327;28;2141;-70
2023/12/16 07:04:14;;;;;;;;;;;;;;;3.44;100.00;97932.06;10500329;28;2050;-69
2023/12/16 07:09:25;;;;;;;;;;;;;;;3.30;100.00;97950.56;10495485;28;2166;-69
2023/12/16 07:14:29;;;;;;;;;;;;;;;3.26;100.00;97950.13;10495166;28;2106;-68
2023/12/16 07:19:39;;;;;;;;;;;;;;;3.36;100.00;97976.47;10514591;27;2057;-69
2023/12/16 07:24:47;;;;;;;;;;;;;;;3.55;100.00;97976.03;10508520;28;2298;-70
2023/12/16 07:30:02;;;;;;;;;;;;;;;3.65;100.00;97987.28;10507744;28;2260;-69
2023/12/16 07:35:13;;;;;;;;;;;;;;;3.70;100.00;97982.28;10510601;28;2115;-70
2023/12/16 07:40:26;;;;;;;;;;;;;;;3.77;100.00;97975.22;10496496;28;2084;-67
2023/12/16 07:45:34;;;;;;;;;;;;;;;3.72;100.00;97966.13;10508531;27;5007;-69
2023/12/16 07:50:41;;;;;;;;;;;;;;;3.73;100.00;97963.28;10496449;28;2127;-70
2023/12/16 07:55:48;;;;;;;;;;;;;;;3.93;100.00;97960.16;10494456;28;2501;-69
2023/12/16 08:00:57;;;;;;;;;;;;;;;4.04;100.00;97971.19;10504752;28;1994;-68
2023/12/16 08:06:00;;;;;;;;;;;;;;;4.22;100.00;97984.22;10495063;28;2334;-69
2023/12/16 08:11:04;;;;;;;;;;;;;;;4.57;100.00;97989.88;10509579;28;2106;-69
2023/12/16 08:16:11;;;;;;;;;;;;;;;4.79;100.00;97985.50;10508802;27;2144;-69
2023/12/16 08:21:17;;;;;;;;;;;;;;;4.86;100.00;97968.59;10493307;28;2094;-73
2023/12/16 08:26:21;;;;;;;;;;;;;;;5.04;100.00;97962.91;10476742;28;2119;-72
2023/12/16 08:31:25;;;;;;;;;;;;;;;5.04;100.00;97984.22;10492239;28;2660;-73
2023/12/16 08:36:29;;;;;;;;;;;;;;;5.19;100.00;97986.88;10509845;28;2056;-71
2023/12/16 08:41:38;;;;;;;;;;;;;;;5.20;100.00;97988.53;10492797;28;5043;-71
2023/12/16 08:46:42;;;;;;;;;;;;;;;5.31;100.00;97993.41;10494426;28;2122;-69
2023/12/16 08:51:47;;;;;;;;;;;;;;;5.32;100.00;98011.03;10494042;28;2067;-70
2023/12/16 08:56:53;;;;;;;;;;;;;;;5.13;100.00;98003.59;10495989;28;2280;-70
2023/12/16 09:02:02;;;;;;;;;;;;;;;5.02;100.00;98038.72;10496979;28;1983;-68
2023/12/16 09:07:07;;;;;;;;;;;;;;;5.11;100.00;98040.31;10491494;28;2172;-70
2023/12/16 09:12:16;;;;;;;;;;;;;;;5.22;100.00;98039.84;10494895;28;2106;-69
2023/12/16 09:17:26;;;;;;;;;;;;;;;5.25;100.00;98039.47;10492946;28;2102;-69
2023/12/16 09:22:33;;;;;;;;;;;;;;;5.28;100.00;98038.25;10493951;28;2229;-69
2023/12/16 09:27:41;;;;;;;;;;;;;;;5.11;100.00;98050.97;10511974;28;2074;-71
2023/12/16 09:32:44;;;;;;;;;;;;;;;5.14;100.00;98042.59;10477964;28;2077;-69
2023/12/16 09:37:51;;;;;;;;;;;;;;;5.15;100.00;98060.22;10493893;28;2272;-70
2023/12/16 09:42:57;;;;;;;;;;;;;;;5.22;100.00;98058.53;10502847;28;5020;-69
2023/12/16 09:48:06;;;;;;;;;;;;;;;5.33;100.00;98059.88;10494141;28;2218;-69
2023/12/16 09:53:10;;;;;;;;;;;;;;;5.46;100.00;98059.22;10498122;28;2144;-70
2023/12/16 09:58:17;;;;;;;;;;;;;;;5.67;100.00;98053.97;10511828;28;1999;-69
2023/12/16 10:03:23;;;;;;;;;;;;;;;5.68;100.00;98056.44;10489716;28;2182;-68
2023/12/16 10:08:28;;;;;;;;;;;;;;;5.82;100.00;98040.59;10505293;28;2078;-67
2023/12/16 10:13:33;;;;;;;;;;;;;;;5.77;100.00;98034.97;10491493;28;2066;-69
2023/12/16 10:18:37;;;;;;;;;;;;;;;5.69;100.00;98031.41;10503330;28;2184;-68
2023/12/16 10:23:44;;;;;;;;;;;;;;;5.71;100.00;98033.88;10475010;28;2027;-69
2023/12/16 10:28:50;;;;;;;;;;;;;;;6.21;100.00;98029.53;10492635;28;2058;-73
2023/12/16 10:33:56;;;;;;;;;;;;;;;6.53;100.00;98011.31;10491615;28;2458;-71
2023/12/16 10:39:00;;;;;;;;;;;;;;;6.80;100.00;98002.47;10498828;28;2106;-69
2023/12/16 10:44:23;;;;;;;;;;;;;;;6.48;100.00;98007.38;10497513;28;4869;-69
2023/12/16 10:49:29;;;;;;;;;;;;;;;6.05;100.00;98005.78;10494981;28;2133;-70
2023/12/16 10:54:33;;;;;;;;;;;;;;;5.89;100.00;97996.94;10513147;28;2063;-72
2023/12/16 10:59:39;;;;;;;;;;;;;;;5.66;100.00;97998.94;10504068;28;1997;-71
2023/12/16 11:04:50;;;;;;;;;;;;;;;5.64;100.00;98001.78;10512693;27;2152;-69
2023/12/16 11:10:01;;;;;;;;;;;;;;;5.86;100.00;97997.31;10499079;28;2280;-70
2023/12/16 11:15:13;;;;;;;;;;;;;;;6.21;100.00;97986.81;10492041;28;2113;-75
2023/12/16 11:20:26;;;;;;;;;;;;;;;7.08;100.00;97956.19;10465043;28;2058;-69
2023/12/16 11:25:41;;;;;;;;;;;;;;;7.61;100.00;97941.16;10507094;28;2120;-69
2023/12/16 11:30:46;;;;;;;;;;;;;;;7.26;100.00;97929.72;10506627;28;2513;-68
2023/12/16 11:35:52;;;;;;;;;;;;;;;7.17;100.00;97934.41;10494700;28;1999;-69
2023/12/16 11:40:59;;;;;;;;;;;;;;;7.15;100.00;97920.41;10495081;28;2292;-69
2023/12/16 11:46:02;;;;;;;;;;;;;;;6.97;100.00;97928.97;10510884;27;2112;-71
2023/12/16 11:51:06;;;;;;;;;;;;;;;6.57;100.00;97948.47;10506920;27;2421;-68
2023/12/16 11:56:09;;;;;;;;;;;;;;;6.54;100.00;97933.63;10494790;28;2072;-67
2023/12/16 12:01:14;;;;;;;;;;;;;;;6.56;100.00;97918.25;10497496;28;2103;-69
2023/12/16 12:06:19;;;;;;;;;;;;;;;6.46;100.00;97909.75;10511134;28;2045;-69
2023/12/16 12:11:37;;;;;;;;;;;;;;;6.23;100.00;97909.97;10493385;28;2082;-69
2023/12/16 12:16:40;;;;;;;;;;;;;;;6.02;100.00;97910.00;10494720;28;2086;-66
2023/12/16 12:21:44;;;;;;;;;;;;;;;5.96;100.00;97909.75;10493318;28;2063;-66
2023/12/16 12:27:02;;;;;;;;;;;;;;;5.84;100.00;97911.25;10498204;28;2058;-70
2023/12/16 12:32:07;;;;;;;;;;;;;;;5.76;100.00;97903.38;10495151;28;2129;-67
2023/12/16 12:37:12;;;;;;;;;;;;;;;5.74;100.00;97893.94;10478298;28;2115;-67
2023/12/16 12:42:19;;;;;;;;;;;;;;;5.80;100.00;97899.34;10507769;27;4964;-68
2023/12/16 12:47:34;;;;;;;;;;;;;;;5.75;100.00;97901.75;10507842;27;2059;-68
2023/12/16 12:52:59;;;;;;;;;;;;;;;5.78;100.00;97896.00;10517739;28;2159;-67
2023/12/16 12:58:24;;;;;;;;;;;;;;;5.72;100.00;97879.94;10490249;28;2051;-67
2023/12/16 13:03:32;;;;;;;;;;;;;;;5.86;100.00;97871.88;10500964;28;2201;-67
2023/12/16 13:08:37;;;;;;;;;;;;;;;5.81;100.00;97873.47;10487598;28;2023;-67
2023/12/16 13:13:45;;;;;;;;;;;;;;;5.74;100.00;97854.72;10488146;28;1979;-69
2023/12/16 13:18:52;;;;;;;;;;;;;;;5.77;100.00;97846.31;10492166;28;2115;-68
2023/12/16 13:23:58;;;;;;;;;;;;;;;5.60;100.00;97842.28;10492671;28;2415;-68
2023/12/16 13:29:06;;;;;;;;;;;;;;;5.52;100.00;97850.41;10491065;28;2083;-68
2023/12/16 13:34:19;;;;;;;;;;;;;;;5.36;100.00;97843.50;10485525;28;2155;-67
2023/12/16 13:39:27;;;;;;;;;;;;;;;5.45;100.00;97862.84;10489272;28;2075;-67
2023/12/16 13:44:35;;;;;;;;;;;;;;;5.29;100.00;97862.09;10491761;28;5035;-68
2023/12/16 13:49:39;;;;;;;;;;;;;;;5.29;100.00;97842.59;10491539;28;2049;-68
2023/12/16 13:54:47;;;;;;;;;;;;;;;5.29;100.00;97848.75;10497318;28;2107;-70
2023/12/16 13:59:53;;;;;;;;;;;;;;;5.40;100.00;97844.75;10489022;28;2047;-67
2023/12/16 14:04:59;;;;;;;;;;;;;;;5.40;100.00;97856.22;10507614;28;2033;-69
2023/12/16 14:10:09;;;;;;;;;;;;;;;5.46;100.00;97854.66;10500219;28;2425;-67
2023/12/16 14:15:12;;;;;;;;;;;;;;;5.48;100.00;97846.50;10513468;28;2137;-67
2023/12/16 14:20:16;;;;;;;;;;;;;;;5.48;100.00;97851.81;10498822;28;2339;-68
2023/12/16 14:25:21;;;;;;;;;;;;;;;5.50;100.00;97845.28;10499050;28;2140;-68
2023/12/16 14:30:28;;;;;;;;;;;;;;;5.46;100.00;97829.81;10497447;28;2010;-66
2023/12/16 14:35:35;;;;;;;;;;;;;;;5.30;100.00;97829.06;10499303;28;2374;-67
2023/12/16 14:40:42;;;;;;;;;;;;;;;5.28;100.00;97831.13;10497545;28;2158;-73
2023/12/16 14:45:46;;;;;;;;;;;;;;;5.07;100.00;97828.41;10512384;27;4948;-68
2023/12/16 14:50:59;;;;;;;;;;;;;;;4.98;100.00;97834.88;10497685;28;2133;-66
2023/12/16 14:56:08;;;;;;;;;;;;;;;4.77;100.00;97836.50;10515996;28;2052;-70
2023/12/16 15:01:21;;;;;;;;;;;;;;;4.64;100.00;97822.97;10514604;28;2108;-68
2023/12/16 15:06:37;;;;;;;;;;;;;;;4.49;100.00;97832.81;10499188;28;2283;-67
2023/12/16 15:11:42;;;;;;;;;;;;;;;4.34;100.00;97843.50;10495272;28;2170;-68
2023/12/16 15:16:48;;;;;;;;;;;;;;;4.17;100.00;97832.19;10495368;28;2211;-67
2023/12/16 15:21:54;;;;;;;;;;;;;;;4.01;100.00;97835.03;10491888;28;2315;-67
2023/12/16 15:27:01;;;;;;;;;;;;;;;3.84;100.00;97830.88;10498773;28;2122;-67
2023/12/16 15:32:15;;;;;;;;;;;;;;;3.72;100.00;97836.59;10496156;28;2117;-68
2023/12/16 15:37:22;;;;;;;;;;;;;;;3.59;100.00;97839.06;10499211;28;2106;-71
2023/12/16 15:42:30;;;;;;;;;;;;;;;3.51;100.00;97839.94;10496904;28;5018;-68
2023/12/16 15:47:34;;;;;;;;;;;;;;;3.37;100.00;97847.84;10500823;28;2051;-73
2023/12/16 15:52:39;;;;;;;;;;;;;;;3.27;100.00;97845.44;10512140;27;2254;-73
2023/12/16 15:57:42;;;;;;;;;;;;;;;3.18;100.00;97841.16;10500920;28;2176;-72
2023/12/16 16:02:48;;;;;;;;;;;;;;;3.10;100.00;97841.22;10498419;28;2170;-72
2023/12/16 16:07:53;;;;;;;;;;;;;;;3.01;100.00;97829.84;10494959;28;2106;-69
2023/12/16 16:12:59;;;;;;;;;;;;;;;3.01;100.00;97840.47;10496021;28;2311;-67
2023/12/16 16:18:04;;;;;;;;;;;;;;;2.94;100.00;97839.50;10493046;28;2079;-67
2023/12/16 16:23:09;;;;;;;;;;;;;;;2.88;100.00;97840.22;10495595;28;2025;-67
2023/12/16 16:28:20;;;;;;;;;;;;;;;2.81;100.00;97832.09;10474337;28;2983;-67
2023/12/16 16:33:25;;;;;;;;;;;;;;;2.78;100.00;97834.28;10491544;28;2070;-66
2023/12/16 16:38:29;;;;;;;;;;;;;;;2.67;100.00;97828.38;10518985;28;2101;-68
2023/12/16 16:43:32;;;;;;;;;;;;;;;2.62;100.00;97829.88;10521036;28;1972;-67
2023/12/16 16:48:36;;;;;;;;;;;;;;;2.56;100.00;97830.56;10540600;27;1946;-68
2023/12/16 16:53:48;;;;;;;;;;;;;;;2.57;100.00;97835.69;10511161;28;1702;-68
2023/12/16 16:58:54;;;;;;;;;;;;;;;2.56;100.00;97831.41;10523744;28;1581;-71
2023/12/16 17:04:03;;;;;;;;;;;;;;;2.49;100.00;97825.13;10522305;28;2314;-71
2023/12/16 17:09:11;;;;;;;;;;;;;;;2.45;100.00;97818.50;10524202;28;1566;-70
2023/12/16 17:14:16;;;;;;;;;;;;;;;2.37;100.00;97826.50;10517195;28;1613;-68
2023/12/16 17:19:21;;;;;;;;;;;;;;;2.39;100.00;97832.44;10533057;28;1377;-69
2023/12/16 17:24:24;;;;;;;;;;;;;;;2.36;100.00;97843.44;10505220;28;1983;-68
2023/12/16 17:29:35;;;;;;;;;;;;;;;2.26;100.00;97838.31;10530665;28;1481;-69
2023/12/16 17:34:41;;;;;;;;;;;;;;;2.20;100.00;97844.28;10527474;28;1444;-70
2023/12/16 17:39:47;;;;;;;;;;;;;;;2.13;100.00;97849.44;10505891;28;1844;-69
2023/12/16 17:50:09;;;;;;;;;;;;;;;2.08;100.00;97845.63;10535887;28;1549;-68
2023/12/16 17:55:37;;;;;;;;;;;;;;;1.99;100.00;97844.84;10533977;28;2218;-67
2023/12/16 18:00:47;;;;;;;;;;;;;;;1.96;100.00;97850.47;10534940;28;1501;-69
2023/12/16 18:05:56;;;;;;;;;;;;;;;1.87;100.00;97847.00;10540297;28;1918;-68
2023/12/16 18:11:05;;;;;;;;;;;;;;;1.85;100.00;97854.31;10538713;28;1520;-68
2023/12/16 18:16:12;;;;;;;;;;;;;;;1.82;100.00;97859.94;10541966;28;1457;-66
2023/12/16 18:21:20;;;;;;;;;;;;;;;1.80;100.00;97875.19;10552199;27;1477;-68
2023/12/16 18:26:25;;;;;;;;;;;;;;;1.72;100.00;97879.66;10533620;28;1979;-69
2023/12/16 18:31:29;;;;;;;;;;;;;;;1.67;100.00;97882.00;10539441;28;1515;-70
2023/12/16 18:36:32;;;;;;;;;;;;;;;1.68;100.00;97883.66;10514878;28;1755;-69
2023/12/16 18:41:36;;;;;;;;;;;;;;;1.72;100.00;97885.81;10532263;28;5040;-70
2023/12/16 18:46:44;;;;;;;;;;;;;;;1.71;100.00;97886.78;10545205;27;1922;-68
2023/12/16 18:51:52;;;;;;;;;;;;;;;1.70;100.00;97873.69;10532104;28;2329;-67
2023/12/16 18:56:55;;;;;;;;;;;;;;;1.61;100.00;97872.88;10508765;28;1497;-67
2023/12/16 19:02:00;;;;;;;;;;;;;;;1.60;100.00;97881.84;10542116;28;1524;-67
2023/12/16 19:07:18;;;;;;;;;;;;;;;1.63;100.00;97877.00;10510900;28;1910;-69
2023/12/16 19:12:24;;;;;;;;;;;;;;;1.58;100.00;97881.16;10519491;28;1447;-68
2023/12/16 19:17:28;;;;;;;;;;;;;;;1.54;100.00;97885.16;10549360;27;1788;-68
2023/12/16 19:22:31;;;;;;;;;;;;;;;1.52;100.00;97877.34;10489889;28;2062;-68
2023/12/16 19:27:38;;;;;;;;;;;;;;;1.47;100.00;97871.72;10514943;28;2192;-68
2023/12/16 19:32:43;;;;;;;;;;;;;;;1.44;100.00;97877.34;10497495;28;2327;-68
2023/12/16 19:37:50;;;;;;;;;;;;;;;1.39;100.00;97892.06;10494873;28;2175;-71
2023/12/16 19:42:53;;;;;;;;;;;;;;;1.39;100.00;97889.41;10509593;28;2106;-73
2023/12/16 19:47:57;;;;;;;;;;;;;;;1.40;100.00;97891.06;10498243;28;1987;-68
2023/12/16 19:53:04;;;;;;;;;;;;;;;1.39;100.00;97900.03;10510312;27;2005;-70
2023/12/16 19:58:08;;;;;;;;;;;;;;;1.34;100.00;97903.19;10495256;28;2218;-67
2023/12/16 20:03:17;;;;;;;;;;;;;;;1.28;100.00;97904.66;10497042;28;2098;-68
2023/12/16 20:08:27;;;;;;;;;;;;;;;1.22;100.00;97910.59;10516248;27;2079;-67
2023/12/16 20:13:37;;;;;;;;;;;;;;;1.14;100.00;97917.69;10496574;28;1995;-68
2023/12/16 20:18:43;;;;;;;;;;;;;;;1.12;100.00;97936.41;10508942;28;2148;-67
2023/12/16 20:23:49;;;;;;;;;;;;;;;1.05;100.00;97940.69;10489150;28;2286;-68
2023/12/16 20:28:55;;;;;;;;;;;;;;;1.01;100.00;97940.16;10500518;27;2132;-66
2023/12/16 20:33:59;;;;;;;;;;;;;;;0.96;100.00;97937.19;10488708;28;2022;-67
2023/12/16 20:44:30;;;;;;;;;;;;;;;0.88;100.00;97950.38;10492643;28;4908;-69
2023/12/16 20:49:47;;;;;;;;;;;;;;;0.82;100.00;97951.00;10504762;28;2034;-73
2023/12/16 20:54:57;;;;;;;;;;;;;;;0.82;100.00;97953.66;10489528;28;2075;-69
2023/12/16 21:00:03;;;;;;;;;;;;;;;0.77;100.00;97964.75;10505249;27;2033;-68
2023/12/16 21:05:07;;;;;;;;;;;;;;;0.76;100.00;97967.53;10487789;28;2120;-70
2023/12/16 21:10:16;;;;;;;;;;;;;;;0.73;100.00;97963.38;10480844;28;2160;-69
2023/12/16 21:15:21;;;;;;;;;;;;;;;0.68;100.00;97973.63;10489851;28;2206;-68
2023/12/16 21:20:32;;;;;;;;;;;;;;;0.63;100.00;97967.97;10476781;28;2118;-67
2023/12/16 21:25:38;;;;;;;;;;;;;;;0.66;100.00;97961.53;10483709;28;2160;-69
2023/12/16 21:30:44;;;;;;;;;;;;;;;0.64;100.00;97966.16;10489017;28;2094;-68
2023/12/16 21:35:48;;;;;;;;;;;;;;;0.68;100.00;97962.19;10486699;28;2087;-70
2023/12/16 21:40:54;;;;;;;;;;;;;;;0.77;100.00;97948.88;10486833;28;2090;-73
2023/12/16 21:46:00;;;;;;;;;;;;;;;0.78;100.00;97954.97;10483427;28;2107;-67
2023/12/16 21:51:05;;;;;;;;;;;;;;;0.83;100.00;97952.69;10485795;28;2156;-68
2023/12/16 21:56:16;;;;;;;;;;;;;;;0.80;100.00;97953.81;10497933;28;1988;-66
2023/12/16 22:01:20;;;;;;;;;;;;;;;0.76;100.00;97967.53;10493293;28;2135;-66
2023/12/16 22:06:25;;;;;;;;;;;;;;;0.76;100.00;97972.81;10506234;28;2054;-67
2023/12/16 22:11:29;;;;;;;;;;;;;;;0.72;100.00;97967.03;10491332;28;2297;-67
2023/12/16 22:16:35;;;;;;;;;;;;;;;0.67;100.00;97963.19;10491241;28;1952;-69
2023/12/16 22:21:43;;;;;;;;;;;;;;;0.64;100.00;97947.63;10503104;28;2128;-67
2023/12/16 22:26:52;;;;;;;;;;;;;;;0.69;100.00;97947.97;10482851;28;2233;-67
2023/12/16 22:32:04;;;;;;;;;;;;;;;0.70;100.00;97941.69;10508282;28;2290;-67
2023/12/16 22:37:14;;;;;;;;;;;;;;;0.74;100.00;97940.38;10507426;28;2461;-67
2023/12/16 22:42:20;;;;;;;;;;;;;;;0.82;100.00;97933.31;10506568;27;4936;-68
2023/12/16 22:47:30;;;;;;;;;;;;;;;0.90;100.00;97910.53;10497949;28;2051;-68
2023/12/16 22:52:39;;;;;;;;;;;;;;;0.90;100.00;97921.13;10479886;28;2089;-67
2023/12/16 22:57:45;;;;;;;;;;;;;;;0.92;100.00;97933.19;10497831;28;1998;-66
2023/12/16 23:02:49;;;;;;;;;;;;;;;0.80;100.00;97940.59;10514906;28;2300;-66
2023/12/16 23:07:57;;;;;;;;;;;;;;;0.85;100.00;97924.22;10501736;28;2032;-68
2023/12/16 23:13:00;;;;;;;;;;;;;;;0.75;100.00;97907.63;10510618;28;2088;-69
2023/12/16 23:18:13;;;;;;;;;;;;;;;0.72;100.00;97903.50;10494634;28;2213;-67
2023/12/16 23:23:25;;;;;;;;;;;;;;;0.72;100.00;97908.78;10511243;27;2022;-68
2023/12/16 23:28:30;;;;;;;;;;;;;;;0.77;100.00;97879.19;10509107;28;2285;-71
2023/12/16 23:33:37;;;;;;;;;;;;;;;0.75;100.00;97867.91;10500262;28;2144;-69
2023/12/16 23:38:45;;;;;;;;;;;;;;;0.78;100.00;97876.38;10512361;27;2198;-71
2023/12/16 23:43:51;;;;;;;;;;;;;;;0.74;100.00;97860.97;10493824;28;5015;-68
2023/12/16 23:48:54;;;;;;;;;;;;;;;0.64;100.00;97870.88;10499033;28;2130;-68
2023/12/16 23:53:59;;;;;;;;;;;;;;;0.58;100.00;97875.00;10495616;28;2258;-74
2023/12/16 23:59:05;;;;;;;;;;;;;;;0.51;100.00;97869.50;10510760;27;2158;-66
